sensor_id;sensor_type;location;lat;lon;timestamp;pressure;altitude;pressure_sealevel;temperature;humidity
32933;BME280;19444;50.518;10.870;2023-11-21T00:01:01;95861.84;;;7.46;100.00
32933;BME280;19444;50.518;10.870;2023-11-21T00:04:00;95859.66;;;7.25;100.00
32933;BME280;19444;50.518;10.870;2023-11-21T00:06:58;95863.94;;;7.35;100.00
32933;BME280;19444;50.518;10.870;2023-11-21T00:09:55;95869.03;;;7.45;100.00
32933;BME280;19444;50.518;10.870;2023-11-21T00:12:52;95874.13;;;7.78;100.00
32933;BME280;19444;50.518;10.870;2023-11-21T00:15:52;95867.50;;;7.97;100.00
32933;BME280;19444;50.518;10.870;2023-11-21T00:18:48;95868.13;;;7.50;100.00
32933;BME280;19444;50.518;10.870;2023-11-21T00:21:45;95870.47;;;7.96;100.00
32933;BME280;19444;50.518;10.870;2023-11-21T00:24:42;95864.31;;;8.18;100.00
32933;BME280;19444;50.518;10.870;2023-11-21T00:27:39;95873.38;;;8.08;100.00
32933;BME280;19444;50.518;10.870;2023-11-21T00:30:36;95866.81;;;8.14;100.00
32933;BME280;19444;50.518;10.870;2023-11-21T00:33:33;95866.50;;;8.16;100.00
32933;BME280;19444;50.518;10.870;2023-11-21T00:36:31;95867.78;;;8.27;100.00
32933;BME280;19444;50.518;10.870;2023-11-21T00:39:28;95869.53;;;8.23;100.00
32933;BME280;19444;50.518;10.870;2023-11-21T00:42:25;95864.13;;;8.14;100.00
32933;BME280;19444;50.518;10.870;2023-11-21T00:45:22;95863.53;;;8.17;100.00
32933;BME280;19444;50.518;10.870;2023-11-21T00:48:19;95868.06;;;8.17;100.00
32933;BME280;19444;50.518;10.870;2023-11-21T00:51:16;95866.72;;;7.97;100.00
32933;BME280;19444;50.518;10.870;2023-11-21T00:54:13;95874.94;;;7.78;100.00
32933;BME280;19444;50.518;10.870;2023-11-21T00:57:10;95872.38;;;7.95;100.00
32933;BME280;19444;50.518;10.870;2023-11-21T01:00:09;95864.88;;;8.06;100.00
32933;BME280;19444;50.518;10.870;2023-11-21T01:03:13;95872.75;;;8.11;100.00
32933;BME280;19444;50.518;10.870;2023-11-21T01:06:10;95878.66;;;7.99;100.00
32933;BME280;19444;50.518;10.870;2023-11-21T01:09:11;95883.59;;;8.46;100.00
32933;BME280;19444;50.518;10.870;2023-11-21T01:12:09;95876.00;;;7.77;100.00
32933;BME280;19444;50.518;10.870;2023-11-21T01:15:07;95879.56;;;7.95;100.00
32933;BME280;19444;50.518;10.870;2023-11-21T01:18:04;95878.69;;;8.39;100.00
32933;BME280;19444;50.518;10.870;2023-11-21T01:21:02;95873.13;;;8.27;100.00
32933;BME280;19444;50.518;10.870;2023-11-21T01:23:59;95876.66;;;8.05;100.00
32933;BME280;19444;50.518;10.870;2023-11-21T01:26:56;95875.84;;;7.51;100.00
32933;BME280;19444;50.518;10.870;2023-11-21T01:29:52;95878.00;;;7.49;100.00
32933;BME280;19444;50.518;10.870;2023-11-21T01:32:50;95875.03;;;7.95;100.00
32933;BME280;19444;50.518;10.870;2023-11-21T01:35:47;95876.19;;;7.81;100.00
32933;BME280;19444;50.518;10.870;2023-11-21T01:38:44;95881.28;;;7.24;100.00
32933;BME280;19444;50.518;10.870;2023-11-21T01:41:42;95886.31;;;7.48;100.00
32933;BME280;19444;50.518;10.870;2023-11-21T01:44:42;95887.53;;;7.64;100.00
32933;BME280;19444;50.518;10.870;2023-11-21T01:47:39;95885.41;;;7.52;100.00
32933;BME280;19444;50.518;10.870;2023-11-21T01:50:38;95880.31;;;7.87;100.00
32933;BME280;19444;50.518;10.870;2023-11-21T01:53:35;95887.03;;;7.84;100.00
32933;BME280;19444;50.518;10.870;2023-11-21T01:56:33;95881.53;;;7.81;100.00
32933;BME280;19444;50.518;10.870;2023-11-21T01:59:35;95884.66;;;7.83;100.00
32933;BME280;19444;50.518;10.870;2023-11-21T02:02:36;95891.25;;;8.08;100.00
32933;BME280;19444;50.518;10.870;2023-11-21T02:05:33;95888.91;;;8.06;100.00
32933;BME280;19444;50.518;10.870;2023-11-21T02:08:30;95892.09;;;7.94;100.00
32933;BME280;19444;50.518;10.870;2023-11-21T02:11:26;95889.59;;;7.89;100.00
32933;BME280;19444;50.518;10.870;2023-11-21T02:14:25;95898.19;;;7.64;100.00
32933;BME280;19444;50.518;10.870;2023-11-21T02:17:23;95899.53;;;7.75;100.00
32933;BME280;19444;50.518;10.870;2023-11-21T02:20:21;95900.78;;;7.33;100.00
32933;BME280;19444;50.518;10.870;2023-11-21T02:23:19;95903.88;;;7.49;100.00
32933;BME280;19444;50.518;10.870;2023-11-21T02:26:16;95899.53;;;7.97;100.00
32933;BME280;19444;50.518;10.870;2023-11-21T02:29:14;95895.44;;;8.31;100.00
32933;BME280;19444;50.518;10.870;2023-11-21T02:32:13;95905.91;;;7.88;100.00
32933;BME280;19444;50.518;10.870;2023-11-21T02:35:11;95906.81;;;7.61;100.00
32933;BME280;19444;50.518;10.870;2023-11-21T02:38:08;95907.16;;;7.68;100.00
32933;BME280;19444;50.518;10.870;2023-11-21T02:41:05;95902.28;;;8.15;100.00
32933;BME280;19444;50.518;10.870;2023-11-21T02:44:03;95900.88;;;8.17;100.00
32933;BME280;19444;50.518;10.870;2023-11-21T02:47:00;95897.06;;;8.10;100.00
32933;BME280;19444;50.518;10.870;2023-11-21T02:49:57;95888.00;;;8.19;100.00
32933;BME280;19444;50.518;10.870;2023-11-21T02:52:54;95896.06;;;8.28;100.00
32933;BME280;19444;50.518;10.870;2023-11-21T02:55:51;95892.38;;;8.38;100.00
32933;BME280;19444;50.518;10.870;2023-11-21T02:58:48;95883.59;;;8.15;100.00
32933;BME280;19444;50.518;10.870;2023-11-21T03:01:46;95883.19;;;7.99;100.00
32933;BME280;19444;50.518;10.870;2023-11-21T03:04:43;95884.69;;;8.45;100.00
32933;BME280;19444;50.518;10.870;2023-11-21T03:07:40;95882.22;;;8.57;100.00
32933;BME280;19444;50.518;10.870;2023-11-21T03:10:37;95884.69;;;8.14;100.00
32933;BME280;19444;50.518;10.870;2023-11-21T03:13:34;95891.28;;;8.39;100.00
32933;BME280;19444;50.518;10.870;2023-11-21T03:16:35;95884.69;;;8.14;100.00
32933;BME280;19444;50.518;10.870;2023-11-21T03:19:32;95898.25;;;7.73;100.00
32933;BME280;19444;50.518;10.870;2023-11-21T03:22:29;95903.34;;;7.83;100.00
32933;BME280;19444;50.518;10.870;2023-11-21T03:25:25;95903.13;;;8.24;100.00
32933;BME280;19444;50.518;10.870;2023-11-21T03:28:22;95894.56;;;8.36;100.00
32933;BME280;19444;50.518;10.870;2023-11-21T03:31:20;95900.97;;;7.81;100.00
32933;BME280;19444;50.518;10.870;2023-11-21T03:34:25;95899.34;;;8.25;100.00
32933;BME280;19444;50.518;10.870;2023-11-21T03:37:25;95902.50;;;8.27;100.00
32933;BME280;19444;50.518;10.870;2023-11-21T03:40:24;95903.84;;;8.38;100.00
32933;BME280;19444;50.518;10.870;2023-11-21T03:43:21;95903.41;;;7.91;100.00
32933;BME280;19444;50.518;10.870;2023-11-21T03:46:18;95906.09;;;7.69;100.00
32933;BME280;19444;50.518;10.870;2023-11-21T03:49:15;95906.19;;;7.64;100.00
32933;BME280;19444;50.518;10.870;2023-11-21T03:52:12;95914.38;;;7.67;100.00
32933;BME280;19444;50.518;10.870;2023-11-21T03:55:09;95912.19;;;7.92;100.00
32933;BME280;19444;50.518;10.870;2023-11-21T03:58:07;95903.97;;;8.11;100.00
32933;BME280;19444;50.518;10.870;2023-11-21T04:01:04;95904.38;;;8.26;100.00
32933;BME280;19444;50.518;10.870;2023-11-21T04:04:01;95894.56;;;8.36;100.00
32933;BME280;19444;50.518;10.870;2023-11-21T04:06:58;95899.91;;;8.36;100.00
32933;BME280;19444;50.518;10.870;2023-11-21T04:09:55;95905.09;;;8.41;100.00
32933;BME280;19444;50.518;10.870;2023-11-21T04:12:52;95915.22;;;8.30;100.00
32933;BME280;19444;50.518;10.870;2023-11-21T04:15:49;95912.66;;;8.16;100.00
32933;BME280;19444;50.518;10.870;2023-11-21T04:18:46;95914.63;;;8.33;100.00
32933;BME280;19444;50.518;10.870;2023-11-21T04:21:43;95917.69;;;8.18;100.00
32933;BME280;19444;50.518;10.870;2023-11-21T04:24:40;95926.81;;;7.72;100.00
32933;BME280;19444;50.518;10.870;2023-11-21T04:27:39;95921.56;;;8.12;100.00
32933;BME280;19444;50.518;10.870;2023-11-21T04:30:36;95917.84;;;7.90;100.00
32933;BME280;19444;50.518;10.870;2023-11-21T04:33:33;95922.31;;;7.81;100.00
32933;BME280;19444;50.518;10.870;2023-11-21T04:36:30;95916.31;;;7.98;100.00
32933;BME280;19444;50.518;10.870;2023-11-21T04:39:28;95920.59;;;8.08;100.00
32933;BME280;19444;50.518;10.870;2023-11-21T04:42:24;95924.75;;;7.69;100.00
32933;BME280;19444;50.518;10.870;2023-11-21T04:45:21;95928.56;;;7.40;100.00
32933;BME280;19444;50.518;10.870;2023-11-21T04:48:18;95935.91;;;7.71;100.00
32933;BME280;19444;50.518;10.870;2023-11-21T04:51:16;95943.75;;;7.18;100.00
32933;BME280;19444;50.518;10.870;2023-11-21T04:54:13;95954.09;;;7.19;100.00
32933;BME280;19444;50.518;10.870;2023-11-21T04:57:10;95953.81;;;7.57;100.00
32933;BME280;19444;50.518;10.870;2023-11-21T05:00:09;95952.00;;;7.66;100.00
32933;BME280;19444;50.518;10.870;2023-11-21T05:03:07;95954.69;;;7.66;100.00
32933;BME280;19444;50.518;10.870;2023-11-21T05:06:04;95951.69;;;7.31;100.00
32933;BME280;19444;50.518;10.870;2023-11-21T05:09:01;95945.25;;;7.46;100.00
32933;BME280;19444;50.518;10.870;2023-11-21T05:11:59;95946.84;;;7.47;100.00
32933;BME280;19444;50.518;10.870;2023-11-21T05:14:56;95952.50;;;7.32;100.00
32933;BME280;19444;50.518;10.870;2023-11-21T05:17:55;95953.81;;;7.21;100.00
32933;BME280;19444;50.518;10.870;2023-11-21T05:20:52;95965.75;;;7.09;100.00
32933;BME280;19444;50.518;10.870;2023-11-21T05:23:50;95966.72;;;7.27;100.00
32933;BME280;19444;50.518;10.870;2023-11-21T05:26:47;95964.44;;;7.34;100.00
32933;BME280;19444;50.518;10.870;2023-11-21T05:29:44;95963.66;;;7.20;100.00
32933;BME280;19444;50.518;10.870;2023-11-21T05:32:41;95976.88;;;7.39;100.00
32933;BME280;19444;50.518;10.870;2023-11-21T05:35:41;95972.31;;;7.39;100.00
32933;BME280;19444;50.518;10.870;2023-11-21T05:38:38;95979.03;;;7.37;100.00
32933;BME280;19444;50.518;10.870;2023-11-21T05:41:35;95984.50;;;7.32;100.00
32933;BME280;19444;50.518;10.870;2023-11-21T05:44:32;95987.00;;;7.15;100.00
32933;BME280;19444;50.518;10.870;2023-11-21T05:47:29;95990.72;;;7.41;100.00
32933;BME280;19444;50.518;10.870;2023-11-21T05:50:26;95986.13;;;7.55;100.00
32933;BME280;19444;50.518;10.870;2023-11-21T05:53:25;95983.81;;;7.26;100.00
32933;BME280;19444;50.518;10.870;2023-11-21T05:56:22;95985.81;;;7.07;100.00
32933;BME280;19444;50.518;10.870;2023-11-21T05:59:19;95991.13;;;7.07;100.00
32933;BME280;19444;50.518;10.870;2023-11-21T06:02:19;95996.66;;;7.24;100.00
32933;BME280;19444;50.518;10.870;2023-11-21T06:05:18;96000.00;;;7.16;100.00
32933;BME280;19444;50.518;10.870;2023-11-21T06:08:15;96002.56;;;7.21;100.00
32933;BME280;19444;50.518;10.870;2023-11-21T06:11:13;96003.84;;;7.10;100.00
32933;BME280;19444;50.518;10.870;2023-11-21T06:14:10;96006.72;;;7.00;100.00
32933;BME280;19444;50.518;10.870;2023-11-21T06:17:07;96012.44;;;7.21;100.00
32933;BME280;19444;50.518;10.870;2023-11-21T06:20:09;96013.72;;;7.23;100.00
32933;BME280;19444;50.518;10.870;2023-11-21T06:23:06;96020.81;;;7.28;100.00
32933;BME280;19444;50.518;10.870;2023-11-21T06:26:04;96032.38;;;7.09;100.00
32933;BME280;19444;50.518;10.870;2023-11-21T06:29:01;96033.06;;;7.01;100.00
32933;BME280;19444;50.518;10.870;2023-11-21T06:31:59;96052.34;;;6.66;100.00
32933;BME280;19444;50.518;10.870;2023-11-21T06:34:57;96049.38;;;6.53;100.00
32933;BME280;19444;50.518;10.870;2023-11-21T06:37:56;96061.72;;;6.63;100.00
32933;BME280;19444;50.518;10.870;2023-11-21T06:40:54;96068.84;;;6.68;100.00
32933;BME280;19444;50.518;10.870;2023-11-21T06:43:51;96067.56;;;6.33;100.00
32933;BME280;19444;50.518;10.870;2023-11-21T06:46:49;96065.84;;;6.23;100.00
32933;BME280;19444;50.518;10.870;2023-11-21T06:49:47;96065.97;;;6.32;100.00
32933;BME280;19444;50.518;10.870;2023-11-21T06:52:47;96071.66;;;5.87;100.00
32933;BME280;19444;50.518;10.870;2023-11-21T06:55:44;96084.59;;;5.94;100.00
32933;BME280;19444;50.518;10.870;2023-11-21T06:58:41;96074.50;;;5.96;100.00
32933;BME280;19444;50.518;10.870;2023-11-21T07:01:38;96075.72;;;6.04;100.00
32933;BME280;19444;50.518;10.870;2023-11-21T07:04:38;96077.81;;;5.83;100.00
32933;BME280;19444;50.518;10.870;2023-11-21T07:07:35;96084.44;;;5.85;100.00
32933;BME280;19444;50.518;10.870;2023-11-21T07:10:35;96085.13;;;5.96;100.00
32933;BME280;19444;50.518;10.870;2023-11-21T07:13:33;96086.25;;;5.90;100.00
32933;BME280;19444;50.518;10.870;2023-11-21T07:16:30;96082.47;;;5.96;100.00
32933;BME280;19444;50.518;10.870;2023-11-21T07:19:27;96092.47;;;6.04;100.00
32933;BME280;19444;50.518;10.870;2023-11-21T07:22:24;96096.72;;;5.81;100.00
32933;BME280;19444;50.518;10.870;2023-11-21T07:25:21;96089.47;;;5.68;100.00
32933;BME280;19444;50.518;10.870;2023-11-21T07:28:19;96101.75;;;5.83;100.00
32933;BME280;19444;50.518;10.870;2023-11-21T07:31:16;96104.63;;;5.67;100.00
32933;BME280;19444;50.518;10.870;2023-11-21T07:34:13;96104.03;;;5.94;100.00
32933;BME280;19444;50.518;10.870;2023-11-21T07:37:10;96113.81;;;5.99;100.00
32933;BME280;19444;50.518;10.870;2023-11-21T07:40:08;96123.09;;;5.78;100.00
32933;BME280;19444;50.518;10.870;2023-11-21T07:43:06;96120.00;;;5.70;100.00
32933;BME280;19444;50.518;10.870;2023-11-21T07:46:03;96124.59;;;6.08;100.00
32933;BME280;19444;50.518;10.870;2023-11-21T07:49:00;96125.97;;;6.24;100.00
32933;BME280;19444;50.518;10.870;2023-11-21T07:51:57;96135.03;;;6.23;100.00
32933;BME280;19444;50.518;10.870;2023-11-21T07:54:54;96128.75;;;6.33;100.00
32933;BME280;19444;50.518;10.870;2023-11-21T07:57:51;96128.66;;;6.38;100.00
32933;BME280;19444;50.518;10.870;2023-11-21T08:00:50;96130.34;;;5.96;100.00
32933;BME280;19444;50.518;10.870;2023-11-21T08:03:47;96136.13;;;5.79;100.00
32933;BME280;19444;50.518;10.870;2023-11-21T08:06:48;96135.09;;;5.75;100.00
32933;BME280;19444;50.518;10.870;2023-11-21T08:09:45;96139.59;;;5.75;100.00
32933;BME280;19444;50.518;10.870;2023-11-21T08:12:43;96137.34;;;5.87;100.00
32933;BME280;19444;50.518;10.870;2023-11-21T08:15:40;96141.81;;;5.91;100.00
32933;BME280;19444;50.518;10.870;2023-11-21T08:18:37;96142.78;;;6.01;100.00
32933;BME280;19444;50.518;10.870;2023-11-21T08:21:34;96140.09;;;6.01;100.00
32933;BME280;19444;50.518;10.870;2023-11-21T08:24:31;96149.13;;;5.81;100.00
32933;BME280;19444;50.518;10.870;2023-11-21T08:27:28;96153.66;;;6.04;100.00
32933;BME280;19444;50.518;10.870;2023-11-21T08:30:25;96153.84;;;6.08;100.00
32933;BME280;19444;50.518;10.870;2023-11-21T08:33:22;96157.31;;;6.27;100.00
32933;BME280;19444;50.518;10.870;2023-11-21T08:36:19;96158.81;;;6.52;100.00
32933;BME280;19444;50.518;10.870;2023-11-21T08:39:17;96154.06;;;6.30;100.00
32933;BME280;19444;50.518;10.870;2023-11-21T08:42:16;96172.16;;;5.90;100.00
32933;BME280;19444;50.518;10.870;2023-11-21T08:45:15;96160.88;;;6.55;100.00
32933;BME280;19444;50.518;10.870;2023-11-21T08:48:14;96167.78;;;6.56;100.00
32933;BME280;19444;50.518;10.870;2023-11-21T08:51:12;96167.81;;;6.18;100.00
32933;BME280;19444;50.518;10.870;2023-11-21T08:54:10;96171.69;;;6.26;100.00
32933;BME280;19444;50.518;10.870;2023-11-21T08:57:08;96184.06;;;6.54;100.00
32933;BME280;19444;50.518;10.870;2023-11-21T09:00:07;96172.69;;;6.49;100.00
32933;BME280;19444;50.518;10.870;2023-11-21T09:03:13;96167.13;;;6.64;100.00
32933;BME280;19444;50.518;10.870;2023-11-21T09:06:12;96168.94;;;6.69;100.00
32933;BME280;19444;50.518;10.870;2023-11-21T09:09:09;96169.47;;;6.84;100.00
32933;BME280;19444;50.518;10.870;2023-11-21T09:12:07;96176.00;;;6.92;100.00
32933;BME280;19444;50.518;10.870;2023-11-21T09:15:05;96181.13;;;6.89;100.00
32933;BME280;19444;50.518;10.870;2023-11-21T09:18:03;96183.34;;;6.30;100.00
32933;BME280;19444;50.518;10.870;2023-11-21T09:21:00;96176.84;;;6.74;100.00
32933;BME280;19444;50.518;10.870;2023-11-21T09:23:57;96185.94;;;6.35;100.00
32933;BME280;19444;50.518;10.870;2023-11-21T09:26:55;96189.81;;;6.62;100.00
32933;BME280;19444;50.518;10.870;2023-11-21T09:29:52;96180.78;;;7.09;100.00
32933;BME280;19444;50.518;10.870;2023-11-21T09:32:50;96188.50;;;6.78;100.00
32933;BME280;19444;50.518;10.870;2023-11-21T09:35:48;96188.66;;;6.49;100.00
32933;BME280;19444;50.518;10.870;2023-11-21T09:38:46;96190.16;;;7.06;100.00
32933;BME280;19444;50.518;10.870;2023-11-21T09:41:50;96193.97;;;6.49;100.00
32933;BME280;19444;50.518;10.870;2023-11-21T09:48:02;96205.28;;;6.22;100.00
32933;BME280;19444;50.518;10.870;2023-11-21T09:51:00;96200.00;;;6.73;100.00
32933;BME280;19444;50.518;10.870;2023-11-21T09:53:59;96199.69;;;7.26;100.00
32933;BME280;19444;50.518;10.870;2023-11-21T09:56:59;96198.56;;;7.74;100.00
32933;BME280;19444;50.518;10.870;2023-11-21T09:59:58;96202.22;;;7.78;100.00
32933;BME280;19444;50.518;10.870;2023-11-21T10:02:58;96194.75;;;8.43;100.00
32933;BME280;19444;50.518;10.870;2023-11-21T10:05:56;96202.22;;;8.05;100.00
32933;BME280;19444;50.518;10.870;2023-11-21T10:08:59;96189.56;;;8.61;100.00
32933;BME280;19444;50.518;10.870;2023-11-21T10:11:56;96205.66;;;8.69;100.00
32933;BME280;19444;50.518;10.870;2023-11-21T10:14:54;96201.06;;;8.34;100.00
32933;BME280;19444;50.518;10.870;2023-11-21T10:17:55;96204.00;;;8.60;100.00
32933;BME280;19444;50.518;10.870;2023-11-21T10:20:53;96206.22;;;8.44;100.00
32933;BME280;19444;50.518;10.870;2023-11-21T10:23:52;96212.56;;;8.20;100.00
32933;BME280;19444;50.518;10.870;2023-11-21T10:26:50;96205.16;;;8.67;100.00
32933;BME280;19444;50.518;10.870;2023-11-21T10:29:51;96209.88;;;8.34;100.00
32933;BME280;19444;50.518;10.870;2023-11-21T10:32:48;96204.00;;;8.60;100.00
32933;BME280;19444;50.518;10.870;2023-11-21T10:35:48;96208.09;;;8.43;100.00
32933;BME280;19444;50.518;10.870;2023-11-21T10:38:50;96204.75;;;9.19;100.00
32933;BME280;19444;50.518;10.870;2023-11-21T10:41:50;96200.09;;;8.79;100.00
32933;BME280;19444;50.518;10.870;2023-11-21T10:44:48;96207.81;;;8.45;100.00
32933;BME280;19444;50.518;10.870;2023-11-21T10:47:45;96201.59;;;8.08;100.00
32933;BME280;19444;50.518;10.870;2023-11-21T10:50:46;96203.19;;;8.59;100.00
32933;BME280;19444;50.518;10.870;2023-11-21T10:53:44;96207.44;;;8.24;100.00
32933;BME280;19444;50.518;10.870;2023-11-21T10:56:45;96206.59;;;8.51;100.00
32933;BME280;19444;50.518;10.870;2023-11-21T10:59:47;96217.50;;;8.77;100.00
32933;BME280;19444;50.518;10.870;2023-11-21T11:02:51;96208.09;;;8.43;100.00
32933;BME280;19444;50.518;10.870;2023-11-21T11:05:50;96211.25;;;9.04;100.00
32933;BME280;19444;50.518;10.870;2023-11-21T11:08:51;96216.91;;;8.80;100.00
32933;BME280;19444;50.518;10.870;2023-11-21T11:11:49;96209.63;;;9.79;100.00
32933;BME280;19444;50.518;10.870;2023-11-21T11:14:49;96214.72;;;9.27;100.00
32933;BME280;19444;50.518;10.870;2023-11-21T11:17:46;96215.91;;;8.76;100.00
32933;BME280;19444;50.518;10.870;2023-11-21T11:20:46;96217.31;;;8.96;100.00
32933;BME280;19444;50.518;10.870;2023-11-21T11:24:11;96222.41;;;8.83;100.00
32933;BME280;19444;50.518;10.870;2023-11-21T11:27:33;96226.31;;;9.22;100.00
32933;BME280;19444;50.518;10.870;2023-11-21T11:34:32;96232.59;;;9.18;100.00
32933;BME280;19444;50.518;10.870;2023-11-21T11:37:31;96230.03;;;9.12;100.00
32933;BME280;19444;50.518;10.870;2023-11-21T11:40:45;96227.00;;;9.05;100.00
32933;BME280;19444;50.518;10.870;2023-11-21T11:43:43;96232.16;;;9.02;100.00
32933;BME280;19444;50.518;10.870;2023-11-21T11:46:45;96232.31;;;9.28;100.00
32933;BME280;19444;50.518;10.870;2023-11-21T11:49:59;96234.38;;;8.86;100.00
32933;BME280;19444;50.518;10.870;2023-11-21T11:53:15;96229.53;;;9.33;100.00
32933;BME280;19444;50.518;10.870;2023-11-21T12:03:09;96231.59;;;9.36;100.00
32933;BME280;19444;50.518;10.870;2023-11-21T12:06:07;96238.81;;;9.13;100.00
32933;BME280;19444;50.518;10.870;2023-11-21T12:09:05;96239.44;;;9.10;100.00
32933;BME280;19444;50.518;10.870;2023-11-21T12:12:03;96243.63;;;9.02;100.00
32933;BME280;19444;50.518;10.870;2023-11-21T12:15:00;96244.00;;;9.09;100.00
32933;BME280;19444;50.518;10.870;2023-11-21T12:17:58;96244.34;;;8.94;100.00
32933;BME280;19444;50.518;10.870;2023-11-21T12:20:56;96254.31;;;9.02;100.00
32933;BME280;19444;50.518;10.870;2023-11-21T12:23:53;96251.47;;;8.99;100.00
32933;BME280;19444;50.518;10.870;2023-11-21T12:26:50;96252.91;;;9.05;100.00
32933;BME280;19444;50.518;10.870;2023-11-21T12:29:47;96262.88;;;8.91;100.00
32933;BME280;19444;50.518;10.870;2023-11-21T12:32:47;96261.50;;;9.16;100.00
32933;BME280;19444;50.518;10.870;2023-11-21T12:35:45;96261.56;;;8.66;100.00
32933;BME280;19444;50.518;10.870;2023-11-21T12:38:42;96263.41;;;9.15;100.00
32933;BME280;19444;50.518;10.870;2023-11-21T12:41:39;96263.66;;;8.91;100.00
32933;BME280;19444;50.518;10.870;2023-11-21T12:44:37;96256.28;;;9.10;100.00
32933;BME280;19444;50.518;10.870;2023-11-21T12:47:37;96271.63;;;9.05;100.00
32933;BME280;19444;50.518;10.870;2023-11-21T12:50:35;96262.09;;;9.12;100.00
32933;BME280;19444;50.518;10.870;2023-11-21T12:53:34;96263.84;;;9.62;100.00
32933;BME280;19444;50.518;10.870;2023-11-21T12:56:39;96265.47;;;9.49;100.00
32933;BME280;19444;50.518;10.870;2023-11-21T12:59:35;96259.66;;;9.47;100.00
32933;BME280;19444;50.518;10.870;2023-11-21T13:02:36;96257.72;;;9.39;100.00
32933;BME280;19444;50.518;10.870;2023-11-21T13:05:37;96262.78;;;9.72;100.00
32933;BME280;19444;50.518;10.870;2023-11-21T13:08:46;96259.13;;;9.67;100.00
32933;BME280;19444;50.518;10.870;2023-11-21T13:11:43;96266.97;;;9.33;100.00
32933;BME280;19444;50.518;10.870;2023-11-21T13:14:42;96261.56;;;9.24;100.00
32933;BME280;19444;50.518;10.870;2023-11-21T13:17:39;96274.00;;;9.51;100.00
32933;BME280;19444;50.518;10.870;2023-11-21T13:20:37;96270.78;;;9.18;100.00
32933;BME280;19444;50.518;10.870;2023-11-21T13:23:37;96274.28;;;9.50;100.00
32933;BME280;19444;50.518;10.870;2023-11-21T13:26:35;96283.25;;;9.23;100.00
32933;BME280;19444;50.518;10.870;2023-11-21T13:29:33;96275.22;;;9.23;100.00
32933;BME280;19444;50.518;10.870;2023-11-21T13:32:32;96278.50;;;9.20;100.00
32933;BME280;19444;50.518;10.870;2023-11-21T13:35:29;96288.69;;;8.95;100.00
32933;BME280;19444;50.518;10.870;2023-11-21T13:38:39;96282.22;;;8.74;100.00
32933;BME280;19444;50.518;10.870;2023-11-21T13:41:40;96286.47;;;8.75;100.00
32933;BME280;19444;50.518;10.870;2023-11-21T13:44:38;96292.44;;;8.94;100.00
32933;BME280;19444;50.518;10.870;2023-11-21T13:47:40;96287.97;;;9.03;100.00
32933;BME280;19444;50.518;10.870;2023-11-21T13:50:38;96294.34;;;8.94;100.00
32933;BME280;19444;50.518;10.870;2023-11-21T13:53:35;96303.16;;;8.94;100.00
32933;BME280;19444;50.518;10.870;2023-11-21T13:56:34;96305.97;;;8.75;100.00
32933;BME280;19444;50.518;10.870;2023-11-21T13:59:31;96311.59;;;8.74;100.00
32933;BME280;19444;50.518;10.870;2023-11-21T14:02:29;96313.00;;;8.30;100.00
32933;BME280;19444;50.518;10.870;2023-11-21T14:05:31;96309.06;;;8.69;100.00
32933;BME280;19444;50.518;10.870;2023-11-21T14:08:30;96316.47;;;8.72;100.00
32933;BME280;19444;50.518;10.870;2023-11-21T14:11:27;96321.63;;;8.41;100.00
32933;BME280;19444;50.518;10.870;2023-11-21T14:14:31;96315.63;;;8.85;100.00
32933;BME280;19444;50.518;10.870;2023-11-21T14:17:28;96320.22;;;8.71;100.00
32933;BME280;19444;50.518;10.870;2023-11-21T14:20:26;96326.28;;;8.49;100.00
32933;BME280;19444;50.518;10.870;2023-11-21T14:23:23;96319.13;;;8.58;100.00
32933;BME280;19444;50.518;10.870;2023-11-21T14:26:20;96315.50;;;8.54;100.00
32933;BME280;19444;50.518;10.870;2023-11-21T14:29:18;96325.47;;;8.21;100.00
32933;BME280;19444;50.518;10.870;2023-11-21T14:32:20;96327.63;;;8.19;100.00
32933;BME280;19444;50.518;10.870;2023-11-21T14:35:18;96324.47;;;8.58;100.00
32933;BME280;19444;50.518;10.870;2023-11-21T14:38:16;96336.72;;;8.32;100.00
32933;BME280;19444;50.518;10.870;2023-11-21T14:41:13;96335.94;;;8.17;100.00
32933;BME280;19444;50.518;10.870;2023-11-21T14:44:10;96337.44;;;7.77;100.00
32933;BME280;19444;50.518;10.870;2023-11-21T14:47:09;96343.91;;;8.04;100.00
32933;BME280;19444;50.518;10.870;2023-11-21T14:50:22;96342.25;;;8.08;100.00
32933;BME280;19444;50.518;10.870;2023-11-21T14:53:33;96336.53;;;8.14;100.00
32933;BME280;19444;50.518;10.870;2023-11-21T14:56:40;96346.31;;;8.19;100.00
32933;BME280;19444;50.518;10.870;2023-11-21T14:59:47;96348.34;;;7.94;100.00
32933;BME280;19444;50.518;10.870;2023-11-21T15:02:49;96358.25;;;7.94;100.00
32933;BME280;19444;50.518;10.870;2023-11-21T15:05:47;96361.91;;;7.98;100.00
32933;BME280;19444;50.518;10.870;2023-11-21T15:08:57;96373.25;;;7.90;100.00
32933;BME280;19444;50.518;10.870;2023-11-21T15:12:14;96373.69;;;7.97;100.00
32933;BME280;19444;50.518;10.870;2023-11-21T15:15:12;96385.81;;;8.49;100.00
32933;BME280;19444;50.518;10.870;2023-11-21T15:18:11;96380.66;;;8.39;100.00
32933;BME280;19444;50.518;10.870;2023-11-21T15:21:09;96383.19;;;8.17;100.00
32933;BME280;19444;50.518;10.870;2023-11-21T15:24:08;96394.28;;;8.24;100.00
32933;BME280;19444;50.518;10.870;2023-11-21T15:27:07;96396.25;;;8.05;100.00
32933;BME280;19444;50.518;10.870;2023-11-21T15:30:05;96401.59;;;8.18;100.00
32933;BME280;19444;50.518;10.870;2023-11-21T15:33:02;96407.53;;;7.83;100.00
32933;BME280;19444;50.518;10.870;2023-11-21T15:36:00;96399.53;;;7.83;100.00
32933;BME280;19444;50.518;10.870;2023-11-21T15:38:57;96403.22;;;7.68;100.00
32933;BME280;19444;50.518;10.870;2023-11-21T15:41:55;96414.94;;;7.53;100.00
32933;BME280;19444;50.518;10.870;2023-11-21T15:44:52;96422.84;;;7.21;100.00
32933;BME280;19444;50.518;10.870;2023-11-21T15:47:49;96433.22;;;7.22;100.00